sensor_id;sensor_type;location;lat;lon;timestamp;P1;durP1;ratioP1;P2;durP2;ratioP2
19059;SDS011;9663;48.996;8.334;2023-05-10T00:02:08;1.20;;;0.60;;
19059;SDS011;9663;48.996;8.334;2023-05-10T00:04:33;0.90;;;0.55;;
19059;SDS011;9663;48.996;8.334;2023-05-10T00:06:59;0.88;;;0.43;;
19059;SDS011;9663;48.996;8.334;2023-05-10T00:09:25;0.70;;;0.40;;
19059;SDS011;9663;48.996;8.334;2023-05-10T00:11:50;1.13;;;0.60;;
19059;SDS011;9663;48.996;8.334;2023-05-10T00:14:16;0.73;;;0.50;;
19059;SDS011;9663;48.996;8.334;2023-05-10T00:16:42;3.05;;;0.57;;
19059;SDS011;9663;48.996;8.334;2023-05-10T00:19:07;1.23;;;0.52;;
19059;SDS011;9663;48.996;8.334;2023-05-10T00:21:33;1.23;;;0.60;;
19059;SDS011;9663;48.996;8.334;2023-05-10T00:23:59;0.90;;;0.50;;
19059;SDS011;9663;48.996;8.334;2023-05-10T00:26:25;0.65;;;0.40;;
19059;SDS011;9663;48.996;8.334;2023-05-10T00:28:51;0.65;;;0.50;;
19059;SDS011;9663;48.996;8.334;2023-05-10T00:31:16;0.70;;;0.45;;
19059;SDS011;9663;48.996;8.334;2023-05-10T00:33:42;1.38;;;0.60;;
19059;SDS011;9663;48.996;8.334;2023-05-10T00:36:08;1.30;;;0.60;;
19059;SDS011;9663;48.996;8.334;2023-05-10T00:38:34;0.90;;;0.60;;
19059;SDS011;9663;48.996;8.334;2023-05-10T00:41:00;1.30;;;0.55;;
19059;SDS011;9663;48.996;8.334;2023-05-10T00:43:25;0.70;;;0.50;;
19059;SDS011;9663;48.996;8.334;2023-05-10T00:45:51;2.22;;;0.80;;
19059;SDS011;9663;48.996;8.334;2023-05-10T00:48:18;1.00;;;0.50;;
19059;SDS011;9663;48.996;8.334;2023-05-10T00:50:44;0.68;;;0.50;;
19059;SDS011;9663;48.996;8.334;2023-05-10T00:53:10;0.90;;;0.50;;
19059;SDS011;9663;48.996;8.334;2023-05-10T00:55:37;1.52;;;0.80;;
19059;SDS011;9663;48.996;8.334;2023-05-10T00:58:03;1.13;;;0.50;;
19059;SDS011;9663;48.996;8.334;2023-05-10T01:00:29;1.05;;;0.45;;
19059;SDS011;9663;48.996;8.334;2023-05-10T01:02:58;0.75;;;0.50;;
19059;SDS011;9663;48.996;8.334;2023-05-10T01:05:24;1.73;;;0.40;;
19059;SDS011;9663;48.996;8.334;2023-05-10T01:07:52;0.70;;;0.50;;
19059;SDS011;9663;48.996;8.334;2023-05-10T01:10:18;1.85;;;0.50;;
19059;SDS011;9663;48.996;8.334;2023-05-10T01:12:45;1.08;;;0.60;;
19059;SDS011;9663;48.996;8.334;2023-05-10T01:15:12;0.93;;;0.60;;
19059;SDS011;9663;48.996;8.334;2023-05-10T01:17:40;1.10;;;0.60;;
19059;SDS011;9663;48.996;8.334;2023-05-10T01:20:10;1.38;;;0.60;;
19059;SDS011;9663;48.996;8.334;2023-05-10T01:29:03;1.23;;;0.60;;
19059;SDS011;9663;48.996;8.334;2023-05-10T01:32:06;1.45;;;0.70;;
19059;SDS011;9663;48.996;8.334;2023-05-10T01:34:47;1.48;;;0.65;;
19059;SDS011;9663;48.996;8.334;2023-05-10T01:37:29;1.73;;;0.50;;
19059;SDS011;9663;48.996;8.334;2023-05-10T01:43:02;1.38;;;0.68;;
19059;SDS011;9663;48.996;8.334;2023-05-10T01:45:39;1.50;;;0.70;;
19059;SDS011;9663;48.996;8.334;2023-05-10T01:48:14;1.05;;;0.60;;
19059;SDS011;9663;48.996;8.334;2023-05-10T01:50:43;1.40;;;0.65;;
19059;SDS011;9663;48.996;8.334;2023-05-10T01:53:11;1.50;;;0.68;;
19059;SDS011;9663;48.996;8.334;2023-05-10T01:55:46;1.48;;;0.60;;
19059;SDS011;9663;48.996;8.334;2023-05-10T01:58:19;1.15;;;0.63;;
19059;SDS011;9663;48.996;8.334;2023-05-10T02:00:50;3.00;;;0.80;;
19059;SDS011;9663;48.996;8.334;2023-05-10T02:03:18;1.60;;;0.80;;
19059;SDS011;9663;48.996;8.334;2023-05-10T02:05:49;1.40;;;0.70;;
19059;SDS011;9663;48.996;8.334;2023-05-10T02:08:18;1.13;;;0.65;;
19059;SDS011;9663;48.996;8.334;2023-05-10T02:10:46;1.20;;;0.60;;
19059;SDS011;9663;48.996;8.334;2023-05-10T02:13:17;2.05;;;0.80;;
19059;SDS011;9663;48.996;8.334;2023-05-10T02:15:45;2.22;;;0.85;;
19059;SDS011;9663;48.996;8.334;2023-05-10T02:18:13;1.98;;;0.85;;
19059;SDS011;9663;48.996;8.334;2023-05-10T02:20:42;1.65;;;0.70;;
19059;SDS011;9663;48.996;8.334;2023-05-10T02:23:11;2.88;;;0.63;;
19059;SDS011;9663;48.996;8.334;2023-05-10T02:25:39;1.65;;;0.80;;
19059;SDS011;9663;48.996;8.334;2023-05-10T02:28:08;1.27;;;0.70;;
19059;SDS011;9663;48.996;8.334;2023-05-10T02:30:36;1.27;;;0.80;;
19059;SDS011;9663;48.996;8.334;2023-05-10T02:33:03;1.80;;;0.90;;
19059;SDS011;9663;48.996;8.334;2023-05-10T02:35:30;1.80;;;0.80;;
19059;SDS011;9663;48.996;8.334;2023-05-10T02:37:58;2.22;;;0.93;;
19059;SDS011;9663;48.996;8.334;2023-05-10T02:40:25;2.88;;;0.80;;
19059;SDS011;9663;48.996;8.334;2023-05-10T02:42:54;1.92;;;0.85;;
19059;SDS011;9663;48.996;8.334;2023-05-10T02:45:23;2.08;;;1.00;;
19059;SDS011;9663;48.996;8.334;2023-05-10T02:47:55;2.08;;;0.90;;
19059;SDS011;9663;48.996;8.334;2023-05-10T02:50:21;1.85;;;0.82;;
19059;SDS011;9663;48.996;8.334;2023-05-10T02:52:52;1.70;;;0.85;;
19059;SDS011;9663;48.996;8.334;2023-05-10T02:55:26;2.03;;;1.00;;
19059;SDS011;9663;48.996;8.334;2023-05-10T02:58:01;1.95;;;0.90;;
19059;SDS011;9663;48.996;8.334;2023-05-10T03:00:28;2.40;;;1.15;;
19059;SDS011;9663;48.996;8.334;2023-05-10T03:02:55;2.85;;;1.00;;
19059;SDS011;9663;48.996;8.334;2023-05-10T03:05:21;2.15;;;0.90;;
19059;SDS011;9663;48.996;8.334;2023-05-10T03:07:48;4.72;;;1.20;;
19059;SDS011;9663;48.996;8.334;2023-05-10T03:10:15;3.00;;;1.05;;
19059;SDS011;9663;48.996;8.334;2023-05-10T03:15:37;2.20;;;0.90;;
19059;SDS011;9663;48.996;8.334;2023-05-10T03:18:18;2.38;;;0.90;;
19059;SDS011;9663;48.996;8.334;2023-05-10T03:20:56;2.10;;;0.95;;
19059;SDS011;9663;48.996;8.334;2023-05-10T03:23:35;2.88;;;1.10;;
19059;SDS011;9663;48.996;8.334;2023-05-10T03:26:18;1.67;;;0.80;;
19059;SDS011;9663;48.996;8.334;2023-05-10T03:28:51;1.77;;;0.80;;
19059;SDS011;9663;48.996;8.334;2023-05-10T03:31:19;1.90;;;0.98;;
19059;SDS011;9663;48.996;8.334;2023-05-10T03:33:46;2.13;;;0.95;;
19059;SDS011;9663;48.996;8.334;2023-05-10T03:36:17;4.80;;;1.00;;
19059;SDS011;9663;48.996;8.334;2023-05-10T03:38:43;1.98;;;0.90;;
19059;SDS011;9663;48.996;8.334;2023-05-10T03:41:09;1.45;;;0.70;;
19059;SDS011;9663;48.996;8.334;2023-05-10T03:43:35;1.58;;;0.82;;
19059;SDS011;9663;48.996;8.334;2023-05-10T03:46:02;2.28;;;0.95;;
19059;SDS011;9663;48.996;8.334;2023-05-10T03:48:28;2.00;;;0.90;;
19059;SDS011;9663;48.996;8.334;2023-05-10T03:50:55;1.77;;;0.80;;
19059;SDS011;9663;48.996;8.334;2023-05-10T03:53:20;1.80;;;0.93;;
19059;SDS011;9663;48.996;8.334;2023-05-10T03:55:47;2.05;;;0.90;;
19059;SDS011;9663;48.996;8.334;2023-05-10T03:58:12;2.17;;;0.90;;
19059;SDS011;9663;48.996;8.334;2023-05-10T04:00:38;2.20;;;1.02;;
19059;SDS011;9663;48.996;8.334;2023-05-10T04:03:08;2.17;;;0.98;;
19059;SDS011;9663;48.996;8.334;2023-05-10T04:05:35;2.10;;;0.90;;
19059;SDS011;9663;48.996;8.334;2023-05-10T04:08:01;2.13;;;0.90;;
19059;SDS011;9663;48.996;8.334;2023-05-10T04:10:28;1.70;;;0.80;;
19059;SDS011;9663;48.996;8.334;2023-05-10T04:12:53;1.85;;;0.82;;
19059;SDS011;9663;48.996;8.334;2023-05-10T04:15:19;2.40;;;0.82;;
19059;SDS011;9663;48.996;8.334;2023-05-10T04:17:45;2.17;;;0.75;;
19059;SDS011;9663;48.996;8.334;2023-05-10T04:20:12;1.98;;;0.90;;
19059;SDS011;9663;48.996;8.334;2023-05-10T04:22:38;2.05;;;0.95;;
19059;SDS011;9663;48.996;8.334;2023-05-10T04:25:04;1.63;;;0.77;;
19059;SDS011;9663;48.996;8.334;2023-05-10T04:27:31;2.03;;;0.75;;
19059;SDS011;9663;48.996;8.334;2023-05-10T04:29:57;1.70;;;0.80;;
19059;SDS011;9663;48.996;8.334;2023-05-10T04:32:22;1.90;;;0.90;;
19059;SDS011;9663;48.996;8.334;2023-05-10T04:34:48;2.00;;;0.82;;
19059;SDS011;9663;48.996;8.334;2023-05-10T04:37:16;1.90;;;0.80;;
19059;SDS011;9663;48.996;8.334;2023-05-10T04:39:42;1.77;;;0.80;;
19059;SDS011;9663;48.996;8.334;2023-05-10T04:42:08;1.77;;;0.85;;
19059;SDS011;9663;48.996;8.334;2023-05-10T04:44:34;2.67;;;0.80;;
19059;SDS011;9663;48.996;8.334;2023-05-10T04:47:00;1.65;;;0.80;;
19059;SDS011;9663;48.996;8.334;2023-05-10T04:49:27;1.75;;;0.90;;
19059;SDS011;9663;48.996;8.334;2023-05-10T04:51:53;2.10;;;1.00;;
19059;SDS011;9663;48.996;8.334;2023-05-10T04:54:19;2.38;;;0.93;;
19059;SDS011;9663;48.996;8.334;2023-05-10T04:56:45;1.60;;;0.75;;
19059;SDS011;9663;48.996;8.334;2023-05-10T04:59:10;1.85;;;0.82;;
19059;SDS011;9663;48.996;8.334;2023-05-10T05:01:36;1.98;;;0.80;;
19059;SDS011;9663;48.996;8.334;2023-05-10T05:04:02;1.85;;;0.93;;
19059;SDS011;9663;48.996;8.334;2023-05-10T05:06:28;2.08;;;0.80;;
19059;SDS011;9663;48.996;8.334;2023-05-10T05:08:53;2.67;;;1.08;;
19059;SDS011;9663;48.996;8.334;2023-05-10T05:11:19;1.95;;;1.00;;
19059;SDS011;9663;48.996;8.334;2023-05-10T05:13:46;2.15;;;0.90;;
19059;SDS011;9663;48.996;8.334;2023-05-10T05:16:11;1.85;;;0.93;;
19059;SDS011;9663;48.996;8.334;2023-05-10T05:18:37;1.90;;;0.90;;
19059;SDS011;9663;48.996;8.334;2023-05-10T05:21:12;1.95;;;0.90;;
19059;SDS011;9663;48.996;8.334;2023-05-10T05:23:40;2.22;;;1.02;;
19059;SDS011;9663;48.996;8.334;2023-05-10T05:26:05;2.05;;;1.05;;
19059;SDS011;9663;48.996;8.334;2023-05-10T05:28:31;2.03;;;0.90;;
19059;SDS011;9663;48.996;8.334;2023-05-10T05:30:59;1.30;;;0.77;;
19059;SDS011;9663;48.996;8.334;2023-05-10T05:33:25;2.13;;;1.00;;
19059;SDS011;9663;48.996;8.334;2023-05-10T05:35:51;1.83;;;0.80;;
19059;SDS011;9663;48.996;8.334;2023-05-10T05:38:16;2.55;;;0.90;;
19059;SDS011;9663;48.996;8.334;2023-05-10T05:40:42;2.35;;;1.00;;
19059;SDS011;9663;48.996;8.334;2023-05-10T05:43:08;2.47;;;1.00;;
19059;SDS011;9663;48.996;8.334;2023-05-10T05:45:34;2.40;;;0.82;;
19059;SDS011;9663;48.996;8.334;2023-05-10T05:47:59;2.40;;;1.00;;
19059;SDS011;9663;48.996;8.334;2023-05-10T05:50:25;1.77;;;0.90;;
19059;SDS011;9663;48.996;8.334;2023-05-10T05:52:51;1.77;;;0.90;;
19059;SDS011;9663;48.996;8.334;2023-05-10T05:55:16;5.85;;;1.25;;
19059;SDS011;9663;48.996;8.334;2023-05-10T05:57:42;1.98;;;0.80;;
19059;SDS011;9663;48.996;8.334;2023-05-10T06:00:08;1.75;;;0.80;;
19059;SDS011;9663;48.996;8.334;2023-05-10T06:02:34;1.88;;;0.80;;
19059;SDS011;9663;48.996;8.334;2023-05-10T06:05:00;2.20;;;0.90;;
19059;SDS011;9663;48.996;8.334;2023-05-10T06:07:25;3.25;;;0.90;;
19059;SDS011;9663;48.996;8.334;2023-05-10T06:09:51;1.60;;;0.85;;
19059;SDS011;9663;48.996;8.334;2023-05-10T06:12:17;2.10;;;0.93;;
19059;SDS011;9663;48.996;8.334;2023-05-10T06:14:43;1.50;;;0.80;;
19059;SDS011;9663;48.996;8.334;2023-05-10T06:17:08;1.83;;;0.85;;
19059;SDS011;9663;48.996;8.334;2023-05-10T06:19:34;1.77;;;0.90;;
19059;SDS011;9663;48.996;8.334;2023-05-10T06:22:01;1.80;;;0.80;;
19059;SDS011;9663;48.996;8.334;2023-05-10T06:24:26;1.48;;;0.70;;
19059;SDS011;9663;48.996;8.334;2023-05-10T06:26:52;2.83;;;0.73;;
19059;SDS011;9663;48.996;8.334;2023-05-10T06:29:18;1.42;;;0.77;;
19059;SDS011;9663;48.996;8.334;2023-05-10T06:31:43;1.52;;;0.77;;
19059;SDS011;9663;48.996;8.334;2023-05-10T06:34:09;1.33;;;0.63;;
19059;SDS011;9663;48.996;8.334;2023-05-10T06:36:36;1.55;;;0.80;;
19059;SDS011;9663;48.996;8.334;2023-05-10T06:39:02;1.60;;;0.80;;
19059;SDS011;9663;48.996;8.334;2023-05-10T06:41:28;1.77;;;0.80;;
19059;SDS011;9663;48.996;8.334;2023-05-10T06:43:53;1.52;;;0.70;;
19059;SDS011;9663;48.996;8.334;2023-05-10T06:46:19;1.55;;;0.82;;
19059;SDS011;9663;48.996;8.334;2023-05-10T06:48:45;1.60;;;0.70;;
19059;SDS011;9663;48.996;8.334;2023-05-10T06:51:10;1.75;;;0.80;;
19059;SDS011;9663;48.996;8.334;2023-05-10T06:53:36;1.33;;;0.63;;
19059;SDS011;9663;48.996;8.334;2023-05-10T06:56:02;1.23;;;0.60;;
19059;SDS011;9663;48.996;8.334;2023-05-10T06:58:28;1.75;;;0.80;;
19059;SDS011;9663;48.996;8.334;2023-05-10T07:00:54;1.45;;;0.70;;
19059;SDS011;9663;48.996;8.334;2023-05-10T07:03:19;1.98;;;0.73;;
19059;SDS011;9663;48.996;8.334;2023-05-10T07:05:45;1.92;;;0.70;;
19059;SDS011;9663;48.996;8.334;2023-05-10T07:08:11;1.67;;;0.70;;
19059;SDS011;9663;48.996;8.334;2023-05-10T07:10:36;1.55;;;0.65;;
19059;SDS011;9663;48.996;8.334;2023-05-10T07:13:02;3.63;;;1.33;;
19059;SDS011;9663;48.996;8.334;2023-05-10T07:15:28;1.75;;;0.90;;
19059;SDS011;9663;48.996;8.334;2023-05-10T07:17:54;1.17;;;0.70;;
19059;SDS011;9663;48.996;8.334;2023-05-10T07:20:20;1.48;;;0.80;;
19059;SDS011;9663;48.996;8.334;2023-05-10T07:22:46;1.92;;;0.80;;
19059;SDS011;9663;48.996;8.334;2023-05-10T07:25:11;1.83;;;0.80;;
19059;SDS011;9663;48.996;8.334;2023-05-10T07:27:37;3.08;;;0.80;;
19059;SDS011;9663;48.996;8.334;2023-05-10T07:30:03;1.50;;;0.80;;
19059;SDS011;9663;48.996;8.334;2023-05-10T07:32:29;2.97;;;0.70;;
19059;SDS011;9663;48.996;8.334;2023-05-10T07:34:55;2.58;;;0.80;;
19059;SDS011;9663;48.996;8.334;2023-05-10T07:37:21;2.65;;;0.80;;
19059;SDS011;9663;48.996;8.334;2023-05-10T07:39:46;1.23;;;0.60;;
19059;SDS011;9663;48.996;8.334;2023-05-10T07:42:12;2.55;;;0.60;;
19059;SDS011;9663;48.996;8.334;2023-05-10T07:44:38;1.60;;;0.77;;
19059;SDS011;9663;48.996;8.334;2023-05-10T07:47:03;1.63;;;0.70;;
19059;SDS011;9663;48.996;8.334;2023-05-10T07:49:29;1.23;;;0.60;;
19059;SDS011;9663;48.996;8.334;2023-05-10T07:51:55;2.08;;;0.77;;
19059;SDS011;9663;48.996;8.334;2023-05-10T07:54:20;1.38;;;0.60;;
19059;SDS011;9663;48.996;8.334;2023-05-10T07:56:46;1.77;;;0.70;;
19059;SDS011;9663;48.996;8.334;2023-05-10T07:59:16;1.27;;;0.63;;
19059;SDS011;9663;48.996;8.334;2023-05-10T08:01:43;0.93;;;0.60;;
19059;SDS011;9663;48.996;8.334;2023-05-10T08:04:09;1.10;;;0.60;;
19059;SDS011;9663;48.996;8.334;2023-05-10T08:06:35;1.92;;;0.70;;
19059;SDS011;9663;48.996;8.334;2023-05-10T08:09:00;1.50;;;0.68;;
19059;SDS011;9663;48.996;8.334;2023-05-10T08:11:27;1.60;;;0.60;;
19059;SDS011;9663;48.996;8.334;2023-05-10T08:13:52;1.10;;;0.60;;
19059;SDS011;9663;48.996;8.334;2023-05-10T08:16:19;1.35;;;0.50;;
19059;SDS011;9663;48.996;8.334;2023-05-10T08:18:45;1.70;;;0.70;;
19059;SDS011;9663;48.996;8.334;2023-05-10T08:21:12;2.30;;;0.70;;
19059;SDS011;9663;48.996;8.334;2023-05-10T08:23:38;1.33;;;0.70;;
19059;SDS011;9663;48.996;8.334;2023-05-10T08:26:04;2.13;;;0.70;;
19059;SDS011;9663;48.996;8.334;2023-05-10T08:28:30;1.77;;;0.63;;
19059;SDS011;9663;48.996;8.334;2023-05-10T08:30:56;1.42;;;0.60;;
19059;SDS011;9663;48.996;8.334;2023-05-10T08:33:22;1.27;;;0.60;;
19059;SDS011;9663;48.996;8.334;2023-05-10T08:35:47;1.20;;;0.60;;
19059;SDS011;9663;48.996;8.334;2023-05-10T08:38:13;1.42;;;0.70;;
19059;SDS011;9663;48.996;8.334;2023-05-10T08:40:40;1.17;;;0.60;;
19059;SDS011;9663;48.996;8.334;2023-05-10T08:43:12;2.75;;;0.70;;
19059;SDS011;9663;48.996;8.334;2023-05-10T08:45:40;1.10;;;0.60;;
19059;SDS011;9663;48.996;8.334;2023-05-10T08:48:10;1.48;;;0.60;;
19059;SDS011;9663;48.996;8.334;2023-05-10T08:50:37;1.40;;;0.60;;
19059;SDS011;9663;48.996;8.334;2023-05-10T08:53:06;1.55;;;0.70;;
19059;SDS011;9663;48.996;8.334;2023-05-10T08:55:37;1.33;;;0.63;;
19059;SDS011;9663;48.996;8.334;2023-05-10T08:58:06;2.58;;;0.60;;
19059;SDS011;9663;48.996;8.334;2023-05-10T09:00:33;1.50;;;0.65;;
19059;SDS011;9663;48.996;8.334;2023-05-10T09:03:02;1.10;;;0.60;;
19059;SDS011;9663;48.996;8.334;2023-05-10T09:05:29;1.10;;;0.60;;
19059;SDS011;9663;48.996;8.334;2023-05-10T09:07:55;7.85;;;1.00;;
19059;SDS011;9663;48.996;8.334;2023-05-10T09:10:21;1.88;;;0.90;;
19059;SDS011;9663;48.996;8.334;2023-05-10T09:12:51;2.45;;;0.80;;
19059;SDS011;9663;48.996;8.334;2023-05-10T09:15:18;2.33;;;0.88;;
19059;SDS011;9663;48.996;8.334;2023-05-10T09:17:45;0.88;;;0.50;;
19059;SDS011;9663;48.996;8.334;2023-05-10T09:20:11;2.35;;;0.90;;
19059;SDS011;9663;48.996;8.334;2023-05-10T09:22:37;1.77;;;0.80;;
19059;SDS011;9663;48.996;8.334;2023-05-10T09:25:10;1.83;;;0.80;;
19059;SDS011;9663;48.996;8.334;2023-05-10T09:27:41;1.45;;;0.70;;
19059;SDS011;9663;48.996;8.334;2023-05-10T09:30:11;1.70;;;0.70;;
19059;SDS011;9663;48.996;8.334;2023-05-10T09:32:55;2.75;;;0.80;;
19059;SDS011;9663;48.996;8.334;2023-05-10T09:35:24;3.70;;;0.88;;
19059;SDS011;9663;48.996;8.334;2023-05-10T09:37:55;1.80;;;0.80;;
19059;SDS011;9663;48.996;8.334;2023-05-10T09:40:24;1.60;;;0.80;;
19059;SDS011;9663;48.996;8.334;2023-05-10T09:45:27;1.30;;;0.63;;
19059;SDS011;9663;48.996;8.334;2023-05-10T09:47:58;1.30;;;0.70;;
19059;SDS011;9663;48.996;8.334;2023-05-10T09:50:26;1.42;;;0.70;;
19059;SDS011;9663;48.996;8.334;2023-05-10T09:52:56;1.42;;;0.63;;
19059;SDS011;9663;48.996;8.334;2023-05-10T09:55:25;1.83;;;0.90;;
19059;SDS011;9663;48.996;8.334;2023-05-10T09:58:03;1.98;;;0.68;;
19059;SDS011;9663;48.996;8.334;2023-05-10T10:00:34;1.55;;;0.60;;
19059;SDS011;9663;48.996;8.334;2023-05-10T10:03:16;1.92;;;0.73;;
19059;SDS011;9663;48.996;8.334;2023-05-10T10:05:45;1.73;;;0.80;;
19059;SDS011;9663;48.996;8.334;2023-05-10T10:08:13;1.08;;;0.63;;
19059;SDS011;9663;48.996;8.334;2023-05-10T10:10:40;2.92;;;0.80;;
19059;SDS011;9663;48.996;8.334;2023-05-10T10:13:09;2.10;;;0.90;;
19059;SDS011;9663;48.996;8.334;2023-05-10T10:15:34;2.20;;;0.98;;
19059;SDS011;9663;48.996;8.334;2023-05-10T10:18:01;2.10;;;0.90;;
19059;SDS011;9663;48.996;8.334;2023-05-10T10:20:29;2.42;;;0.80;;
19059;SDS011;9663;48.996;8.334;2023-05-10T10:22:55;2.42;;;0.80;;
19059;SDS011;9663;48.996;8.334;2023-05-10T10:25:21;2.80;;;0.70;;
19059;SDS011;9663;48.996;8.334;2023-05-10T10:36:15;1.88;;;0.70;;
19059;SDS011;9663;48.996;8.334;2023-05-10T10:41:32;1.83;;;0.90;;
19059;SDS011;9663;48.996;8.334;2023-05-10T10:47:01;2.90;;;1.10;;
19059;SDS011;9663;48.996;8.334;2023-05-10T10:49:37;3.00;;;1.35;;
19059;SDS011;9663;48.996;8.334;2023-05-10T10:52:40;3.20;;;1.30;;
19059;SDS011;9663;48.996;8.334;2023-05-10T10:55:17;2.72;;;1.10;;
19059;SDS011;9663;48.996;8.334;2023-05-10T10:57:50;4.20;;;1.27;;
19059;SDS011;9663;48.996;8.334;2023-05-10T11:00:30;2.60;;;1.02;;
19059;SDS011;9663;48.996;8.334;2023-05-10T11:03:06;2.33;;;1.00;;
19059;SDS011;9663;48.996;8.334;2023-05-10T11:05:45;2.65;;;1.17;;
19059;SDS011;9663;48.996;8.334;2023-05-10T11:13:33;2.50;;;0.80;;
19059;SDS011;9663;48.996;8.334;2023-05-10T11:16:09;1.67;;;0.73;;
19059;SDS011;9663;48.996;8.334;2023-05-10T11:21:31;2.17;;;0.90;;
19059;SDS011;9663;48.996;8.334;2023-05-10T11:23:59;2.42;;;1.00;;
19059;SDS011;9663;48.996;8.334;2023-05-10T11:26:31;2.63;;;0.88;;
19059;SDS011;9663;48.996;8.334;2023-05-10T11:29:00;1.73;;;0.80;;
19059;SDS011;9663;48.996;8.334;2023-05-10T11:31:27;3.63;;;0.98;;
19059;SDS011;9663;48.996;8.334;2023-05-10T11:33:54;1.25;;;0.63;;
19059;SDS011;9663;48.996;8.334;2023-05-10T11:38:51;1.90;;;0.70;;
19059;SDS011;9663;48.996;8.334;2023-05-10T11:41:17;2.83;;;0.80;;
19059;SDS011;9663;48.996;8.334;2023-05-10T11:43:46;1.25;;;0.70;;
19059;SDS011;9663;48.996;8.334;2023-05-10T11:46:17;1.92;;;0.77;;
19059;SDS011;9663;48.996;8.334;2023-05-10T11:48:50;1.85;;;0.80;;
19059;SDS011;9663;48.996;8.334;2023-05-10T11:51:21;1.60;;;0.70;;
19059;SDS011;9663;48.996;8.334;2023-05-10T11:53:49;1.35;;;0.70;;
19059;SDS011;9663;48.996;8.334;2023-05-10T11:56:18;1.77;;;0.70;;
19059;SDS011;9663;48.996;8.334;2023-05-10T11:58:45;1.73;;;0.73;;
19059;SDS011;9663;48.996;8.334;2023-05-10T12:01:18;1.73;;;0.70;;
19059;SDS011;9663;48.996;8.334;2023-05-10T12:03:43;2.33;;;0.77;;
19059;SDS011;9663;48.996;8.334;2023-05-10T12:06:09;1.33;;;0.60;;
19059;SDS011;9663;48.996;8.334;2023-05-10T12:08:35;2.60;;;0.70;;
19059;SDS011;9663;48.996;8.334;2023-05-10T12:11:05;1.63;;;0.70;;
19059;SDS011;9663;48.996;8.334;2023-05-10T12:13:38;1.50;;;0.80;;
19059;SDS011;9663;48.996;8.334;2023-05-10T12:16:12;1.52;;;0.70;;
19059;SDS011;9663;48.996;8.334;2023-05-10T12:18:40;1.67;;;0.70;;
19059;SDS011;9663;48.996;8.334;2023-05-10T12:21:10;1.45;;;0.77;;
19059;SDS011;9663;48.996;8.334;2023-05-10T12:23:37;1.70;;;0.80;;
19059;SDS011;9663;48.996;8.334;2023-05-10T12:26:04;1.58;;;0.80;;
19059;SDS011;9663;48.996;8.334;2023-05-10T12:28:31;2.00;;;0.70;;
19059;SDS011;9663;48.996;8.334;2023-05-10T12:31:01;1.45;;;0.65;;
19059;SDS011;9663;48.996;8.334;2023-05-10T12:33:27;1.08;;;0.68;;
19059;SDS011;9663;48.996;8.334;2023-05-10T12:36:22;1.38;;;0.60;;
19059;SDS011;9663;48.996;8.334;2023-05-10T12:38:48;1.58;;;0.70;;
19059;SDS011;9663;48.996;8.334;2023-05-10T12:41:15;2.40;;;0.80;;
19059;SDS011;9663;48.996;8.334;2023-05-10T12:43:42;1.88;;;0.90;;
19059;SDS011;9663;48.996;8.334;2023-05-10T12:46:14;2.28;;;0.80;;
19059;SDS011;9663;48.996;8.334;2023-05-10T12:48:42;1.40;;;0.80;;
19059;SDS011;9663;48.996;8.334;2023-05-10T12:51:10;1.52;;;0.70;;
19059;SDS011;9663;48.996;8.334;2023-05-10T12:53:42;1.38;;;0.70;;
19059;SDS011;9663;48.996;8.334;2023-05-10T12:56:07;1.73;;;0.80;;
19059;SDS011;9663;48.996;8.334;2023-05-10T12:58:33;2.08;;;0.88;;
19059;SDS011;9663;48.996;8.334;2023-05-10T13:01:00;1.20;;;0.60;;
19059;SDS011;9663;48.996;8.334;2023-05-10T13:03:26;1.38;;;0.70;;
19059;SDS011;9663;48.996;8.334;2023-05-10T13:05:51;1.30;;;0.60;;
19059;SDS011;9663;48.996;8.334;2023-05-10T13:08:17;1.42;;;0.60;;
19059;SDS011;9663;48.996;8.334;2023-05-10T13:10:43;1.42;;;0.60;;
19059;SDS011;9663;48.996;8.334;2023-05-10T13:13:09;1.83;;;0.80;;
19059;SDS011;9663;48.996;8.334;2023-05-10T13:15:35;1.35;;;0.60;;
19059;SDS011;9663;48.996;8.334;2023-05-10T13:18:02;1.20;;;0.50;;
19059;SDS011;9663;48.996;8.334;2023-05-10T13:20:28;1.38;;;0.60;;
19059;SDS011;9663;48.996;8.334;2023-05-10T13:22:54;1.25;;;0.60;;
19059;SDS011;9663;48.996;8.334;2023-05-10T13:25:19;1.80;;;0.70;;
19059;SDS011;9663;48.996;8.334;2023-05-10T13:27:45;1.80;;;0.70;;
19059;SDS011;9663;48.996;8.334;2023-05-10T13:30:11;2.00;;;0.70;;
19059;SDS011;9663;48.996;8.334;2023-05-10T13:32:37;1.60;;;0.60;;
19059;SDS011;9663;48.996;8.334;2023-05-10T13:35:03;1.55;;;0.60;;
19059;SDS011;9663;48.996;8.334;2023-05-10T13:37:32;1.48;;;0.70;;
19059;SDS011;9663;48.996;8.334;2023-05-10T13:40:01;2.00;;;0.65;;
19059;SDS011;9663;48.996;8.334;2023-05-10T13:42:27;1.90;;;0.57;;
19059;SDS011;9663;48.996;8.334;2023-05-10T13:44:53;1.00;;;0.55;;
19059;SDS011;9663;48.996;8.334;2023-05-10T13:47:18;1.08;;;0.50;;
19059;SDS011;9663;48.996;8.334;2023-05-10T13:49:46;1.20;;;0.60;;
19059;SDS011;9663;48.996;8.334;2023-05-10T13:52:12;2.25;;;0.77;;
19059;SDS011;9663;48.996;8.334;2023-05-10T13:54:38;2.58;;;0.60;;
19059;SDS011;9663;48.996;8.334;2023-05-10T13:57:04;1.58;;;0.70;;
19059;SDS011;9663;48.996;8.334;2023-05-10T13:59:31;1.05;;;0.50;;
19059;SDS011;9663;48.996;8.334;2023-05-10T14:01:57;1.65;;;0.60;;
19059;SDS011;9663;48.996;8.334;2023-05-10T14:04:29;1.20;;;0.60;;
19059;SDS011;9663;48.996;8.334;2023-05-10T14:06:55;1.33;;;0.60;;
19059;SDS011;9663;48.996;8.334;2023-05-10T14:09:22;1.30;;;0.65;;
19059;SDS011;9663;48.996;8.334;2023-05-10T14:11:47;1.08;;;0.65;;
19059;SDS011;9663;48.996;8.334;2023-05-10T14:14:13;1.13;;;0.60;;
19059;SDS011;9663;48.996;8.334;2023-05-10T14:16:42;1.52;;;0.60;;
19059;SDS011;9663;48.996;8.334;2023-05-10T14:19:09;1.35;;;0.60;;
19059;SDS011;9663;48.996;8.334;2023-05-10T14:21:36;1.50;;;0.70;;
19059;SDS011;9663;48.996;8.334;2023-05-10T14:24:02;2.30;;;0.70;;
19059;SDS011;9663;48.996;8.334;2023-05-10T14:26:28;1.08;;;0.50;;
19059;SDS011;9663;48.996;8.334;2023-05-10T14:28:54;1.42;;;0.70;;
19059;SDS011;9663;48.996;8.334;2023-05-10T14:31:19;1.45;;;0.60;;
19059;SDS011;9663;48.996;8.334;2023-05-10T14:33:48;1.25;;;0.60;;
19059;SDS011;9663;48.996;8.334;2023-05-10T14:36:14;1.35;;;0.60;;
19059;SDS011;9663;48.996;8.334;2023-05-10T14:38:40;1.48;;;0.60;;
19059;SDS011;9663;48.996;8.334;2023-05-10T14:41:06;0.75;;;0.50;;
19059;SDS011;9663;48.996;8.334;2023-05-10T14:43:32;0.90;;;0.50;;
19059;SDS011;9663;48.996;8.334;2023-05-10T14:45:58;1.45;;;0.60;;
19059;SDS011;9663;48.996;8.334;2023-05-10T14:48:23;1.92;;;0.70;;
19059;SDS011;9663;48.996;8.334;2023-05-10T14:50:49;1.23;;;0.57;;
19059;SDS011;9663;48.996;8.334;2023-05-10T14:53:17;1.50;;;0.80;;
19059;SDS011;9663;48.996;8.334;2023-05-10T14:55:43;2.45;;;0.60;;
19059;SDS011;9663;48.996;8.334;2023-05-10T14:58:09;2.78;;;0.60;;
19059;SDS011;9663;48.996;8.334;2023-05-10T15:00:34;1.13;;;0.60;;
19059;SDS011;9663;48.996;8.334;2023-05-10T15:03:00;3.80;;;0.60;;
19059;SDS011;9663;48.996;8.334;2023-05-10T15:05:27;2.03;;;0.65;;
19059;SDS011;9663;48.996;8.334;2023-05-10T15:07:52;1.25;;;0.43;;
19059;SDS011;9663;48.996;8.334;2023-05-10T15:10:18;1.08;;;0.60;;
19059;SDS011;9663;48.996;8.334;2023-05-10T15:12:44;1.13;;;0.50;;
19059;SDS011;9663;48.996;8.334;2023-05-10T15:15:09;1.30;;;0.60;;
19059;SDS011;9663;48.996;8.334;2023-05-10T15:17:35;1.45;;;0.68;;
19059;SDS011;9663;48.996;8.334;2023-05-10T15:20:01;1.52;;;0.60;;
19059;SDS011;9663;48.996;8.334;2023-05-10T15:22:28;1.25;;;0.50;;
19059;SDS011;9663;48.996;8.334;2023-05-10T15:24:56;1.10;;;0.60;;
19059;SDS011;9663;48.996;8.334;2023-05-10T15:27:26;2.05;;;0.68;;
19059;SDS011;9663;48.996;8.334;2023-05-10T15:29:52;2.55;;;0.63;;
19059;SDS011;9663;48.996;8.334;2023-05-10T15:32:18;1.00;;;0.60;;
19059;SDS011;9663;48.996;8.334;2023-05-10T15:34:43;0.90;;;0.50;;
19059;SDS011;9663;48.996;8.334;2023-05-10T15:37:09;1.42;;;0.50;;
19059;SDS011;9663;48.996;8.334;2023-05-10T15:39:35;1.58;;;0.60;;
19059;SDS011;9663;48.996;8.334;2023-05-10T15:42:01;1.20;;;0.60;;
19059;SDS011;9663;48.996;8.334;2023-05-10T15:44:27;1.02;;;0.50;;